Time;durP1;ratioP1;P1;durP2;ratioP2;P2;SDS_P1;SDS_P2;PMS_P1;PMS_P2;Temp;Humidity;BMP_temperature;BMP_pressure;BME280_temperature;BME280_humidity;BME280_pressure;Samples;Min_cycle;Max_cycle;Signal;HPM_P1;HPM_P2
2023/08/26 00:00:45;;;;;;;24.90;22.35;;;18.00;99.90;;;;;;5025266;28;20095;-76
2023/08/26 00:03:11;;;;;;;33.90;27.90;;;18.00;99.90;;;;;;5041942;28;20044;-74
2023/08/26 00:05:37;;;;;;;33.63;27.05;;;18.00;99.90;;;;;;5024109;28;20132;-71
2023/08/26 00:08:03;;;;;;;24.65;22.10;;;18.00;99.90;;;;;;5007725;28;20405;-72
2023/08/26 00:10:28;;;;;;;26.80;23.83;;;17.90;99.90;;;;;;5041007;28;20060;-72
2023/08/26 00:12:54;;;;;;;27.25;22.83;;;17.90;99.90;;;;;;5040830;28;20041;-74
2023/08/26 00:15:20;;;;;;;28.60;25.02;;;17.90;99.90;;;;;;5040126;28;20539;-74
2023/08/26 00:17:46;;;;;;;27.88;24.30;;;17.90;99.90;;;;;;5025612;28;20044;-73
2023/08/26 00:20:12;;;;;;;28.52;24.65;;;17.80;99.90;;;;;;5042120;28;20048;-74
2023/08/26 00:22:38;;;;;;;25.17;21.75;;;17.80;99.90;;;;;;5026143;28;20033;-73
2023/08/26 00:25:06;;;;;;;29.38;24.90;;;17.70;99.90;;;;;;5026126;28;20032;-71
2023/08/26 00:27:32;;;;;;;26.83;23.17;;;17.70;99.90;;;;;;5041530;28;20048;-67
2023/08/26 00:30:03;;;;;;;25.58;22.30;;;17.60;99.90;;;;;;5037768;28;20098;-65
2023/08/26 00:32:29;;;;;;;26.25;22.75;;;17.60;99.90;;;;;;5021847;28;20052;-65
2023/08/26 00:34:55;;;;;;;25.73;22.73;;;17.60;99.90;;;;;;5004912;28;20045;-66
2023/08/26 00:37:21;;;;;;;24.80;21.27;;;17.50;99.90;;;;;;5041049;28;20044;-72
2023/08/26 00:39:47;;;;;;;35.38;26.10;;;17.50;99.90;;;;;;5011862;28;20091;-71
2023/08/26 00:42:13;;;;;;;22.92;20.35;;;17.50;99.90;;;;;;5043948;28;20041;-73
2023/08/26 00:44:39;;;;;;;26.33;22.35;;;17.50;99.90;;;;;;5042499;28;20033;-74
2023/08/26 00:47:05;;;;;;;25.00;21.55;;;17.50;99.90;;;;;;5042044;28;20520;-73
2023/08/26 00:49:32;;;;;;;24.40;21.25;;;17.50;99.90;;;;;;5042440;28;20041;-73
2023/08/26 00:51:58;;;;;;;22.58;19.35;;;17.40;99.90;;;;;;5025245;28;20063;-72
2023/08/26 00:54:24;;;;;;;20.55;18.33;;;17.50;99.90;;;;;;5042237;28;20551;-73
2023/08/26 00:56:50;;;;;;;23.40;20.48;;;17.40;99.90;;;;;;5009491;28;20045;-73
2023/08/26 00:59:17;;;;;;;25.70;20.92;;;17.50;99.90;;;;;;5025239;28;20090;-75
2023/08/26 01:01:45;;;;;;;30.23;23.60;;;17.50;99.90;;;;;;5041233;28;20049;-72
2023/08/26 01:04:12;;;;;;;27.35;20.50;;;17.40;99.90;;;;;;5023870;28;20450;-74
2023/08/26 01:06:38;;;;;;;23.42;19.58;;;17.40;99.90;;;;;;5040596;28;20049;-73
2023/08/26 01:09:05;;;;;;;22.38;18.85;;;17.40;99.90;;;;;;5040378;28;20088;-74
2023/08/26 01:11:46;;;;;;;21.15;17.58;;;17.40;99.90;;;;;;5040675;28;20048;-74
2023/08/26 01:14:37;;;;;;;20.05;17.80;;;17.40;99.90;;;;;;5040189;28;20037;-74
2023/08/26 01:17:08;;;;;;;22.90;19.42;;;17.40;99.90;;;;;;5039240;28;20056;-73
2023/08/26 01:19:38;;;;;;;22.80;18.65;;;17.30;99.90;;;;;;5023275;28;20060;-78
2023/08/26 01:22:09;;;;;;;24.58;20.30;;;17.30;99.90;;;;;;5039828;28;20045;-72
2023/08/26 01:24:36;;;;;;;19.17;16.15;;;17.30;99.90;;;;;;5040245;28;20123;-73
2023/08/26 01:27:05;;;;;;;18.95;15.88;;;17.20;99.90;;;;;;5039421;28;20044;-74
2023/08/26 01:29:31;;;;;;;22.90;16.58;;;17.10;99.90;;;;;;5039796;28;20036;-74
2023/08/26 01:32:21;;;;;;;19.85;14.65;;;17.10;99.90;;;;;;5038473;28;20041;-74
2023/08/26 01:34:52;;;;;;;16.80;14.63;;;17.00;99.90;;;;;;5023190;28;20065;-74
2023/08/26 01:37:19;;;;;;;;;;;17.00;99.90;;;;;;5039411;28;20041;-73
2023/08/26 01:39:47;;;;;;;18.40;13.73;;;16.90;99.90;;;;;;5038814;28;19917;-74
2023/08/26 01:42:17;;;;;;;16.92;14.15;;;16.90;99.90;;;;;;5038399;28;20556;-73
2023/08/26 01:44:44;;;;;;;17.38;13.10;;;16.90;99.90;;;;;;5055256;28;20051;-75
2023/08/26 01:47:10;;;;;;;20.40;15.07;;;16.90;99.90;;;;;;5022383;28;20079;-74
2023/08/26 01:49:36;;;;;;;17.55;14.05;;;16.90;99.90;;;;;;5022376;28;20493;-74
2023/08/26 01:52:02;;;;;;;15.20;12.77;;;16.80;99.90;;;;;;5038908;28;20100;-73
2023/08/26 01:54:33;;;;;;;16.55;13.10;;;16.80;99.90;;;;;;5023905;28;20052;-72
2023/08/26 01:56:59;;;;;;;17.77;13.88;;;16.80;99.90;;;;;;5022335;28;20401;-74
2023/08/26 01:59:25;;;;;;;19.70;15.55;;;16.70;99.90;;;;;;5021973;28;20076;-72
2023/08/26 02:01:50;;;;;;;16.20;13.25;;;16.70;99.90;;;;;;5038516;28;20044;-73
2023/08/26 02:04:16;;;;;;;15.77;12.27;;;16.60;99.90;;;;;;5037983;28;20047;-74
2023/08/26 02:06:42;;;;;;;13.25;10.75;;;16.60;99.90;;;;;;5038141;28;20083;-74
2023/08/26 02:09:12;;;;;;;14.27;11.57;;;16.60;99.90;;;;;;5022046;28;20045;-73
2023/08/26 02:11:38;;;;;;;16.05;12.63;;;16.60;99.90;;;;;;5038019;28;20040;-73
2023/08/26 02:14:04;;;;;;;18.58;13.93;;;16.50;99.90;;;;;;5038156;28;20131;-74
2023/08/26 02:16:30;;;;;;;13.15;10.70;;;16.50;99.90;;;;;;5004968;28;20044;-73
2023/08/26 02:18:56;;;;;;;14.30;11.82;;;16.50;99.90;;;;;;5036765;28;20064;-75
2023/08/26 02:21:22;;;;;;;14.68;12.05;;;16.40;99.90;;;;;;5036821;28;20469;-75
2023/08/26 02:23:51;;;;;;;15.98;11.43;;;16.40;99.90;;;;;;5021691;28;20037;-75
2023/08/26 02:26:17;;;;;;;12.02;8.98;;;16.40;99.90;;;;;;5038100;28;20087;-74
2023/08/26 02:28:44;;;;;;;12.25;9.52;;;16.40;99.90;;;;;;5021980;28;20123;-73
2023/08/26 02:31:13;;;;;;;11.23;8.32;;;16.50;99.90;;;;;;5006090;28;20044;-73
2023/08/26 02:33:39;;;;;;;12.50;10.20;;;16.50;99.90;;;;;;5038184;28;20396;-73
2023/08/26 02:36:04;;;;;;;11.65;9.35;;;16.50;99.90;;;;;;5037896;28;20047;-75
2023/08/26 02:38:33;;;;;;;12.75;8.90;;;16.50;99.90;;;;;;5037323;28;20464;-74
2023/08/26 02:40:59;;;;;;;11.90;8.80;;;16.50;99.90;;;;;;5037401;28;20044;-74
2023/08/26 02:43:25;;;;;;;11.23;9.13;;;16.40;99.90;;;;;;5021320;28;20485;-73
2023/08/26 02:45:53;;;;;;;15.75;12.85;;;16.40;99.90;;;;;;5037264;28;20045;-73
2023/08/26 02:48:22;;;;;;;16.48;11.65;;;16.40;99.90;;;;;;5021502;28;20049;-74
2023/08/26 02:50:55;;;;;;;14.50;11.25;;;16.40;99.90;;;;;;5021470;28;20124;-75
2023/08/26 02:53:25;;;;;;;12.73;8.43;;;16.40;99.90;;;;;;5037770;28;20040;-75
2023/08/26 02:55:52;;;;;;;12.65;8.70;;;16.30;99.90;;;;;;5037788;28;20100;-75
2023/08/26 02:58:22;;;;;;;14.27;11.13;;;16.30;99.90;;;;;;5021038;28;20080;-75
2023/08/26 03:00:48;;;;;;;14.35;9.90;;;16.30;99.90;;;;;;5020767;28;20047;-73
2023/08/26 03:03:15;;;;;;;11.00;8.80;;;16.40;99.90;;;;;;5036434;28;20037;-73
2023/08/26 03:05:41;;;;;;;13.27;10.43;;;16.30;99.90;;;;;;5019755;28;20121;-73
2023/08/26 03:08:07;;;;;;;16.33;12.25;;;16.30;99.90;;;;;;5021177;28;20543;-74
2023/08/26 03:10:34;;;;;;;13.10;9.98;;;16.20;99.90;;;;;;5004574;28;20477;-73
2023/08/26 03:12:59;;;;;;;11.20;9.05;;;16.30;99.90;;;;;;5037811;28;20424;-74
2023/08/26 03:15:29;;;;;;;12.27;9.50;;;16.30;99.90;;;;;;5037302;28;20041;-74
2023/08/26 03:17:56;;;;;;;12.50;10.43;;;16.30;99.90;;;;;;5036839;28;20087;-65
2023/08/26 03:20:25;;;;;;;13.75;10.60;;;16.30;99.90;;;;;;5018253;28;20041;-67
2023/08/26 03:22:57;;;;;;;14.40;11.60;;;16.20;99.90;;;;;;5034782;28;20033;-67
2023/08/26 03:25:24;;;;;;;12.25;10.45;;;16.10;99.90;;;;;;5018547;28;20090;-66
2023/08/26 03:27:52;;;;;;;15.82;11.02;;;16.20;99.90;;;;;;5003025;28;20032;-65
2023/08/26 03:30:18;;;;;;;15.70;10.95;;;16.20;99.90;;;;;;5034976;28;20041;-66
2023/08/26 03:32:50;;;;;;;14.27;10.73;;;16.10;99.90;;;;;;5037181;28;20033;-66
2023/08/26 03:35:16;;;;;;;11.90;9.68;;;16.10;99.90;;;;;;5021874;28;20077;-65
2023/08/26 03:37:42;;;;;;;13.40;9.50;;;16.10;99.90;;;;;;5038360;28;20084;-66
2023/08/26 03:40:09;;;;;;;12.10;8.60;;;16.10;99.90;;;;;;5022210;28;20374;-65
2023/08/26 03:42:38;;;;;;;13.63;10.30;;;16.10;99.90;;;;;;5038310;28;20080;-66
2023/08/26 03:45:04;;;;;;;14.65;11.35;;;16.10;99.90;;;;;;5038214;28;20129;-65
2023/08/26 03:47:31;;;;;;;14.40;11.73;;;16.10;99.90;;;;;;5038509;28;20397;-65
2023/08/26 03:49:57;;;;;;;13.80;10.52;;;16.10;99.90;;;;;;5022063;28;20091;-65
2023/08/26 03:52:23;;;;;;;15.70;12.23;;;16.10;99.90;;;;;;5005680;28;20076;-67
2023/08/26 03:54:49;;;;;;;14.75;11.63;;;16.10;99.90;;;;;;5038209;28;20053;-64
2023/08/26 03:57:18;;;;;;;15.43;12.20;;;16.00;99.90;;;;;;5021614;28;20045;-66
2023/08/26 03:59:44;;;;;;;12.38;9.75;;;16.00;99.90;;;;;;5038002;28;20052;-65
2023/08/26 04:02:10;;;;;;;15.82;12.48;;;15.90;99.90;;;;;;5037736;28;20051;-66
2023/08/26 04:04:36;;;;;;;13.80;11.30;;;16.00;99.90;;;;;;5038336;28;20044;-66
2023/08/26 04:07:02;;;;;;;14.35;12.30;;;16.00;99.90;;;;;;5034177;28;20053;-65
2023/08/26 04:09:28;;;;;;;9.18;7.28;;;15.90;99.90;;;;;;5034755;28;20551;-65
2023/08/26 04:11:54;;;;;;;11.52;7.68;;;15.90;99.90;;;;;;5034730;28;20045;-65
2023/08/26 04:14:20;;;;;;;10.63;7.70;;;16.00;99.90;;;;;;5018244;28;20486;-66
2023/08/26 04:16:46;;;;;;;10.05;7.38;;;15.90;99.90;;;;;;5018409;28;20037;-66
2023/08/26 04:19:14;;;;;;;13.27;10.15;;;16.00;99.90;;;;;;5001813;28;20037;-66
2023/08/26 04:21:42;;;;;;;11.82;8.85;;;15.90;99.90;;;;;;5017552;28;20045;-66
2023/08/26 04:24:08;;;;;;;10.35;8.45;;;16.00;99.90;;;;;;5018433;28;20037;-64
2023/08/26 04:26:37;;;;;;;10.02;8.50;;;16.00;99.90;;;;;;5034322;28;20044;-75
2023/08/26 04:29:02;;;;;;;13.52;9.48;;;16.00;99.90;;;;;;5035875;28;20033;-74
2023/08/26 04:31:28;;;;;;;11.90;9.10;;;16.00;99.90;;;;;;5019582;28;20072;-74
2023/08/26 04:33:54;;;;;;;13.77;9.48;;;16.00;99.90;;;;;;5019569;28;20037;-73
2023/08/26 04:36:23;;;;;;;10.65;7.88;;;16.00;99.90;;;;;;5035115;28;20041;-75
2023/08/26 04:38:49;;;;;;;12.65;9.75;;;16.00;99.90;;;;;;5034656;28;20049;-73
2023/08/26 04:41:15;;;;;;;13.23;10.60;;;16.00;99.90;;;;;;5034481;28;20060;-73
2023/08/26 04:43:47;;;;;;;10.90;9.55;;;16.00;99.90;;;;;;5035346;28;20067;-75
2023/08/26 04:46:15;;;;;;;14.65;11.80;;;15.90;99.90;;;;;;5050767;28;20033;-73
2023/08/26 04:48:41;;;;;;;15.35;12.20;;;15.90;99.90;;;;;;5034447;28;20038;-74
2023/08/26 04:51:07;;;;;;;11.07;8.60;;;15.90;99.90;;;;;;5034353;28;20072;-75
2023/08/26 04:53:33;;;;;;;13.93;10.60;;;15.90;99.90;;;;;;5034136;28;20041;-74
2023/08/26 04:55:59;;;;;;;17.88;14.15;;;15.90;99.90;;;;;;5034419;28;20402;-72
2023/08/26 04:58:25;;;;;;;18.90;14.23;;;15.90;99.90;;;;;;5034159;28;20049;-75
2023/08/26 05:00:52;;;;;;;12.10;10.48;;;15.90;99.90;;;;;;5034495;28;20489;-73
2023/08/26 05:03:19;;;;;;;12.52;9.77;;;15.90;99.90;;;;;;5018773;28;20095;-73
2023/08/26 05:05:45;;;;;;;23.23;15.85;;;15.90;99.90;;;;;;5037861;28;20045;-73
2023/08/26 05:08:11;;;;;;;14.88;11.77;;;15.90;99.90;;;;;;5005662;28;20132;-74
2023/08/26 05:10:38;;;;;;;18.98;13.52;;;15.80;99.90;;;;;;5022819;28;20076;-75
2023/08/26 05:13:05;;;;;;;13.73;10.23;;;15.80;99.90;;;;;;5023434;28;20083;-75
2023/08/26 05:15:32;;;;;;;17.58;12.77;;;15.80;99.90;;;;;;5039759;28;20084;-74
2023/08/26 05:17:58;;;;;;;15.55;11.93;;;15.80;99.90;;;;;;5023912;28;20063;-73
2023/08/26 05:20:29;;;;;;;16.00;12.57;;;15.90;99.90;;;;;;5006629;28;20476;-73
2023/08/26 05:23:02;;;;;;;14.00;11.60;;;15.90;99.90;;;;;;5039622;28;20086;-74
2023/08/26 05:25:37;;;;;;;16.70;12.57;;;15.90;99.90;;;;;;5040548;28;20037;-74
2023/08/26 05:28:06;;;;;;;17.15;12.52;;;15.90;99.90;;;;;;5022332;28;20041;-75
2023/08/26 05:30:33;;;;;;;16.17;14.07;;;15.90;99.90;;;;;;5021580;28;20041;-74
2023/08/26 05:33:02;;;;;;;20.98;15.50;;;15.90;99.90;;;;;;5037724;28;20041;-74
2023/08/26 05:35:29;;;;;;;25.73;17.75;;;15.90;99.90;;;;;;5024872;28;20044;-75
2023/08/26 05:38:01;;;;;;;20.65;15.15;;;15.90;99.90;;;;;;5023214;28;20124;-73
2023/08/26 05:40:28;;;;;;;17.35;13.82;;;15.90;99.90;;;;;;5022884;28;20080;-75
2023/08/26 05:42:55;;;;;;;17.95;15.40;;;15.90;99.90;;;;;;5038247;28;20033;-74
2023/08/26 05:45:25;;;;;;;23.65;17.10;;;15.90;99.90;;;;;;5021907;28;20040;-75
2023/08/26 05:47:51;;;;;;;18.75;15.00;;;15.90;99.90;;;;;;5021888;28;20055;-72
2023/08/26 05:50:17;;;;;;;16.35;14.52;;;15.90;99.90;;;;;;5022307;28;20052;-75
2023/08/26 05:52:44;;;;;;;14.80;11.15;;;16.00;99.90;;;;;;5038359;28;20045;-72
2023/08/26 05:55:16;;;;;;;17.98;14.18;;;16.00;99.90;;;;;;5020584;28;20076;-75
2023/08/26 05:57:48;;;;;;;15.93;12.27;;;16.00;99.90;;;;;;5039543;28;20511;-74
2023/08/26 06:00:14;;;;;;;;;;;16.00;99.90;;;;;;5024082;28;20083;-73
2023/08/26 06:02:43;;;;;;;19.98;15.57;;;16.00;99.90;;;;;;5039190;28;20376;-73
2023/08/26 06:05:09;;;;;;;16.50;11.80;;;16.00;99.90;;;;;;5038539;28;20037;-73
2023/08/26 06:07:46;;;;;;;17.27;13.90;;;16.00;99.90;;;;;;5037616;28;20458;-73
2023/08/26 06:10:13;;;;;;;17.98;12.15;;;16.00;99.90;;;;;;5005655;28;20389;-74
2023/08/26 06:12:39;;;;;;;18.25;12.15;;;16.10;99.90;;;;;;5038707;28;20050;-73
2023/08/26 06:15:06;;;;;;;16.45;12.25;;;16.10;99.90;;;;;;4989638;28;20052;-75
2023/08/26 06:17:34;;;;;;;17.70;13.18;;;16.10;99.90;;;;;;5038314;28;20088;-72
2023/08/26 06:20:09;;;;;;;21.23;14.13;;;16.10;99.90;;;;;;5037560;28;20040;-72
2023/08/26 06:22:36;;;;;;;15.95;12.13;;;16.10;99.90;;;;;;5037918;28;20054;-75
2023/08/26 06:25:08;;;;;;;17.45;12.52;;;16.10;99.90;;;;;;5020987;28;20033;-74
2023/08/26 06:27:36;;;;;;;21.75;16.00;;;16.10;99.90;;;;;;5036521;28;20154;-74
2023/08/26 06:30:03;;;;;;;19.13;14.20;;;16.10;99.90;;;;;;5053746;28;20512;-73
2023/08/26 06:32:38;;;;;;;19.10;13.77;;;16.10;99.90;;;;;;5037808;28;20094;-73
2023/08/26 06:35:04;;;;;;;22.40;16.55;;;16.10;99.90;;;;;;5037204;28;20040;-74
2023/08/26 06:37:39;;;;;;;20.70;16.15;;;16.10;99.90;;;;;;5037051;28;20059;-76
2023/08/26 06:40:05;;;;;;;27.38;20.08;;;16.10;99.90;;;;;;5019892;28;20126;-74
2023/08/26 06:42:34;;;;;;;21.05;17.30;;;16.10;99.90;;;;;;5020192;28;20044;-75
2023/08/26 06:45:01;;;;;;;23.45;17.52;;;16.10;99.90;;;;;;5020640;28;20422;-71
2023/08/26 06:47:26;;;;;;;22.63;18.95;;;16.10;99.90;;;;;;5020641;28;20040;-74
2023/08/26 06:49:52;;;;;;;23.67;17.30;;;16.10;99.90;;;;;;5021062;28;20040;-73
2023/08/26 06:52:18;;;;;;;26.92;19.10;;;16.20;99.90;;;;;;5021169;28;20045;-73
2023/08/26 06:54:43;;;;;;;18.02;15.82;;;16.10;99.90;;;;;;5037474;28;20404;-73
2023/08/26 06:57:09;;;;;;;21.17;15.98;;;16.10;99.90;;;;;;5036424;28;20041;-73
2023/08/26 06:59:35;;;;;;;21.92;17.35;;;16.20;99.90;;;;;;5052624;28;20045;-74
2023/08/26 07:02:01;;;;;;;19.10;15.80;;;16.20;99.90;;;;;;5035719;28;20136;-73
2023/08/26 07:04:26;;;;;;;20.98;16.48;;;16.30;99.90;;;;;;5019307;28;20040;-72
2023/08/26 07:06:58;;;;;;;22.42;17.52;;;16.30;99.90;;;;;;5038144;28;20057;-73
2023/08/26 07:09:27;;;;;;;24.45;17.20;;;16.30;99.90;;;;;;5024181;28;20118;-74
2023/08/26 07:11:53;;;;;;;21.77;18.38;;;16.30;99.90;;;;;;5023094;28;20045;-74
2023/08/26 07:14:19;;;;;;;27.08;19.90;;;16.40;99.90;;;;;;5039803;28;20056;-75
2023/08/26 07:16:45;;;;;;;26.25;21.50;;;16.40;99.90;;;;;;5039733;28;20041;-73
2023/08/26 07:19:11;;;;;;;24.80;20.33;;;16.40;99.90;;;;;;5039657;28;20044;-73
2023/08/26 07:21:37;;;;;;;23.90;18.92;;;16.40;99.90;;;;;;5023112;28;20048;-73
2023/08/26 07:24:03;;;;;;;30.13;23.27;;;16.40;99.90;;;;;;5007413;28;20392;-73
2023/08/26 07:26:29;;;;;;;29.10;23.23;;;16.50;99.90;;;;;;5039324;28;20041;-73
2023/08/26 07:28:58;;;;;;;26.75;22.08;;;16.40;99.90;;;;;;5039818;28;20060;-74
2023/08/26 07:31:24;;;;;;;27.80;21.23;;;16.40;99.90;;;;;;5006229;28;20067;-74
2023/08/26 07:33:50;;;;;;;26.35;21.77;;;16.40;99.90;;;;;;5023216;28;20037;-73
2023/08/26 07:36:16;;;;;;;26.25;22.40;;;16.30;99.90;;;;;;5024662;28;20037;-74
2023/08/26 07:38:42;;;;;;;27.42;21.05;;;16.30;99.90;;;;;;5024596;28;20052;-73
2023/08/26 07:41:21;;;;;;;23.88;20.52;;;16.30;99.90;;;;;;5024102;28;20404;-72
2023/08/26 07:43:53;;;;;;;28.83;20.30;;;16.30;99.90;;;;;;5040644;28;20087;-74
2023/08/26 07:46:22;;;;;;;26.13;20.27;;;16.40;99.90;;;;;;5039294;28;20041;-73
2023/08/26 07:48:49;;;;;;;22.80;19.65;;;16.30;99.90;;;;;;5022901;28;20041;-74
2023/08/26 07:51:15;;;;;;;23.17;19.65;;;16.30;99.90;;;;;;5038921;28;20056;-73
2023/08/26 07:54:01;;;;;;;25.17;21.58;;;16.30;99.90;;;;;;5022837;28;20045;-77
2023/08/26 07:56:34;;;;;;;27.45;21.17;;;16.30;99.90;;;;;;5039044;28;20049;-74
2023/08/26 07:58:59;;;;;;;22.45;19.77;;;16.20;99.90;;;;;;5022679;28;20068;-66
2023/08/26 08:01:25;;;;;;;22.83;20.23;;;16.20;99.90;;;;;;5054889;28;20429;-65
2023/08/26 08:03:51;;;;;;;22.95;20.35;;;16.10;99.90;;;;;;5037880;28;20087;-65
2023/08/26 08:06:16;;;;;;;24.15;20.98;;;16.10;99.90;;;;;;5038006;28;20052;-65
2023/08/26 08:08:42;;;;;;;24.25;20.38;;;16.10;99.90;;;;;;5038349;28;20489;-66
2023/08/26 08:11:08;;;;;;;23.40;20.88;;;16.20;99.90;;;;;;5038096;28;20045;-66
2023/08/26 08:13:34;;;;;;;23.90;21.38;;;16.10;99.90;;;;;;5038300;28;20044;-65
2023/08/26 08:15:59;;;;;;;23.88;20.75;;;16.20;99.90;;;;;;5038067;28;20048;-64
2023/08/26 08:18:25;;;;;;;24.55;21.08;;;16.20;99.90;;;;;;5037268;28;20044;-65
2023/08/26 08:20:52;;;;;;;23.92;20.85;;;16.20;99.90;;;;;;5021523;28;20136;-67
2023/08/26 08:23:22;;;;;;;24.55;21.98;;;16.30;99.90;;;;;;5037721;28;20094;-66
2023/08/26 08:25:48;;;;;;;25.63;19.70;;;16.40;99.90;;;;;;5037625;28;20048;-65
2023/08/26 08:28:13;;;;;;;23.15;20.73;;;16.60;99.90;;;;;;5021100;28;20033;-66
2023/08/26 08:30:39;;;;;;;22.23;19.83;;;16.80;99.90;;;;;;5037571;28;20041;-67
2023/08/26 08:33:05;;;;;;;22.73;19.92;;;16.90;99.90;;;;;;5037903;28;20540;-65
2023/08/26 08:35:31;;;;;;;23.52;19.92;;;17.00;99.90;;;;;;5037571;28;20094;-65
2023/08/26 08:37:57;;;;;;;20.35;18.15;;;17.20;99.90;;;;;;5037808;28;20037;-65
2023/08/26 08:40:23;;;;;;;22.65;18.30;;;17.40;99.90;;;;;;5037430;28;20091;-64
2023/08/26 08:42:58;;;;;;;20.60;17.60;;;17.60;99.90;;;;;;5037321;28;20044;-65
2023/08/26 08:45:25;;;;;;;18.40;15.05;;;17.70;99.90;;;;;;5037242;28;20041;-64
2023/08/26 08:47:53;;;;;;;16.38;14.40;;;17.80;99.90;;;;;;5037300;28;20128;-64
2023/08/26 08:50:21;;;;;;;17.42;15.27;;;17.90;99.90;;;;;;5055346;28;20397;-65
2023/08/26 08:52:48;;;;;;;16.58;14.10;;;17.80;99.90;;;;;;5037181;28;20048;-63
2023/08/26 08:55:14;;;;;;;18.02;14.40;;;17.80;99.90;;;;;;5020532;28;20132;-65
2023/08/26 08:57:41;;;;;;;18.67;14.05;;;17.90;99.90;;;;;;5020437;28;20052;-66
2023/08/26 09:00:12;;;;;;;19.15;14.05;;;17.90;99.90;;;;;;5036945;28;20063;-64
2023/08/26 09:02:42;;;;;;;17.85;14.52;;;18.10;99.90;;;;;;5004257;28;20049;-65
2023/08/26 09:05:09;;;;;;;18.35;12.45;;;18.30;99.90;;;;;;5036958;28;20068;-65
2023/08/26 09:07:36;;;;;;;16.65;12.95;;;18.60;99.90;;;;;;5038013;28;20137;-72
2023/08/26 09:10:02;;;;;;;14.20;11.63;;;18.80;99.90;;;;;;5039564;28;20087;-71
2023/08/26 09:12:29;;;;;;;15.18;11.60;;;19.00;99.90;;;;;;5037845;28;20037;-73
2023/08/26 09:14:55;;;;;;;16.95;12.95;;;19.30;99.90;;;;;;5037448;28;20044;-72
2023/08/26 09:17:21;;;;;;;16.48;11.90;;;19.60;99.90;;;;;;5020117;28;20049;-63
2023/08/26 09:19:54;;;;;;;15.73;11.23;;;19.80;99.90;;;;;;5036769;28;20121;-65
2023/08/26 09:22:23;;;;;;;15.43;11.38;;;20.10;99.90;;;;;;5036320;28;20052;-64
2023/08/26 09:24:56;;;;;;;12.65;10.43;;;20.30;99.90;;;;;;5020629;28;20119;-65
2023/08/26 09:27:22;;;;;;;14.52;10.43;;;20.50;99.90;;;;;;5054391;28;20037;-65
2023/08/26 09:29:57;;;;;;;12.98;9.00;;;20.50;99.90;;;;;;5036482;28;20048;-64
2023/08/26 09:32:41;;;;;;;14.35;9.35;;;20.30;99.90;;;;;;5036211;28;20124;-65
2023/08/26 09:35:17;;;;;;;12.65;9.45;;;20.20;99.90;;;;;;5054396;28;20127;-65
2023/08/26 09:37:45;;;;;;;12.27;9.07;;;20.30;99.90;;;;;;5036211;28;20047;-65
2023/08/26 09:40:16;;;;;;;13.30;9.15;;;20.40;99.90;;;;;;5054087;28;20439;-64
2023/08/26 09:42:43;;;;;;;13.65;8.55;;;20.50;99.90;;;;;;5036073;28;20084;-65
2023/08/26 09:45:17;;;;;;;11.75;7.60;;;20.60;99.90;;;;;;5036154;28;20033;-65
2023/08/26 09:47:51;;;;;;;13.25;7.40;;;20.70;99.90;;;;;;5004118;28;20071;-66
2023/08/26 09:50:38;;;;;;;14.52;7.25;;;20.90;99.90;;;;;;5035892;28;20033;-65
2023/08/26 09:53:05;;;;;;;12.07;7.07;;;21.00;99.90;;;;;;5036014;28;20047;-65
2023/08/26 09:55:36;;;;;;;11.90;7.05;;;20.90;99.90;;;;;;5003413;28;20037;-64
2023/08/26 09:58:02;;;;;;;12.53;6.80;;;20.90;99.90;;;;;;5053975;28;20045;-64
2023/08/26 10:00:29;;;;;;;12.50;6.53;;;20.70;99.90;;;;;;5035836;28;20040;-65
2023/08/26 10:03:02;;;;;;;12.60;6.30;;;20.70;99.90;;;;;;5035961;28;19970;-65
2023/08/26 10:05:30;;;;;;;12.38;7.20;;;20.70;99.90;;;;;;5036000;28;20460;-65
2023/08/26 10:07:57;;;;;;;11.60;5.68;;;20.80;99.90;;;;;;5035445;28;20053;-64
2023/08/26 10:10:39;;;;;;;13.68;6.07;;;20.80;99.90;;;;;;5019330;28;20037;-64
2023/08/26 10:13:06;;;;;;;12.50;5.35;;;20.60;99.90;;;;;;5053706;28;20394;-63
2023/08/26 10:15:33;;;;;;;10.63;5.30;;;20.80;99.90;;;;;;5035661;28;20063;-63
2023/08/26 10:18:15;;;;;;;10.90;4.93;;;20.90;99.90;;;;;;5035859;28;20045;-71
2023/08/26 10:20:44;;;;;;;13.45;4.32;;;21.20;99.90;;;;;;5035848;28;20044;-71
2023/08/26 10:23:29;;;;;;;8.38;3.50;;;21.30;99.90;;;;;;5035962;28;20037;-69
2023/08/26 10:25:56;;;;;;;9.20;3.70;;;21.60;99.90;;;;;;5021929;28;20043;-70
2023/08/26 10:28:26;;;;;;;8.15;3.30;;;21.80;99.90;;;;;;5052361;28;20032;-71
2023/08/26 10:30:56;;;;;;;7.50;3.10;;;22.00;99.90;;;;;;5035371;28;20060;-72
2023/08/26 10:33:22;;;;;;;11.57;3.60;;;22.20;99.90;;;;;;5053318;28;20037;-71
2023/08/26 10:36:15;;;;;;;7.60;2.80;;;22.20;99.90;;;;;;5035643;28;20039;-71
2023/08/26 10:38:58;;;;;;;8.57;2.80;;;22.00;99.90;;;;;;5035261;28;20060;-71
2023/08/26 10:41:27;;;;;;;10.63;2.50;;;21.80;99.90;;;;;;5034680;28;20037;-70
2023/08/26 10:43:54;;;;;;;8.68;2.60;;;21.70;99.90;;;;;;5035413;28;20552;-70
2023/08/26 10:46:56;;;;;;;8.02;2.45;;;21.60;99.90;;;;;;5035419;28;20080;-71
2023/08/26 10:49:55;;;;;;;6.93;2.17;;;21.50;99.90;;;;;;4994037;28;20092;-72
2023/08/26 10:52:31;;;;;;;6.93;2.25;;;21.50;99.90;;;;;;5052567;28;20048;-65
2023/08/26 10:55:31;;;;;;;8.05;2.58;;;21.60;99.90;;;;;;5053119;28;20041;-65
2023/08/26 10:58:16;;;;;;;9.45;2.30;;;21.80;99.90;;;;;;5052066;28;20049;-65
2023/08/26 11:00:45;;;;;;;8.82;2.45;;;22.00;99.90;;;;;;5035083;28;20139;-62
2023/08/26 11:03:25;;;;;;;8.23;2.40;;;22.00;99.90;;;;;;5053048;28;20067;-64
2023/08/26 11:06:05;;;;;;;6.70;2.10;;;22.20;99.90;;;;;;5034809;28;20072;-65
2023/08/26 11:08:31;;;;;;;8.90;2.30;;;22.40;99.90;;;;;;5034931;28;20124;-65
2023/08/26 11:10:57;;;;;;;8.15;2.70;;;22.70;99.90;;;;;;5002239;28;20048;-64
2023/08/26 11:13:26;;;;;;;6.57;2.30;;;22.80;99.90;;;;;;5034863;28;20131;-65
2023/08/26 11:15:53;;;;;;;7.63;2.10;;;22.70;99.90;;;;;;5002882;28;20053;-64
2023/08/26 11:18:20;;;;;;;7.70;2.33;;;22.50;99.90;;;;;;5034787;28;20072;-63
2023/08/26 11:20:46;;;;;;;7.30;2.10;;;22.20;99.90;;;;;;5034683;28;20083;-63
2023/08/26 11:23:12;;;;;;;7.88;2.20;;;21.90;99.90;;;;;;5034782;28;20146;-64
2023/08/26 11:25:38;;;;;;;6.47;2.10;;;21.90;99.90;;;;;;5018619;28;20060;-63
2023/08/26 11:28:09;;;;;;;4.57;1.55;;;22.00;99.90;;;;;;5034701;28;20102;-64
2023/08/26 11:30:41;;;;;;;6.38;1.70;;;22.00;99.90;;;;;;5034994;28;20135;-63
2023/08/26 11:33:12;;;;;;;5.90;1.40;;;22.00;99.90;;;;;;5034878;28;20037;-63
2023/08/26 11:35:39;;;;;;;5.78;1.60;;;22.20;99.90;;;;;;5034953;28;20091;-64
2023/08/26 11:38:08;;;;;;;7.40;1.65;;;22.40;99.90;;;;;;5034756;28;20116;-63
2023/08/26 11:40:37;;;;;;;4.78;1.50;;;22.20;99.90;;;;;;5034593;28;20053;-62
2023/08/26 11:43:10;;;;;;;6.18;1.80;;;21.90;99.90;;;;;;5034628;28;20144;-63
2023/08/26 11:45:38;;;;;;;4.65;1.40;;;21.50;99.90;;;;;;5052286;28;20040;-63
2023/08/26 11:48:09;;;;;;;6.57;1.60;;;21.20;99.90;;;;;;5051458;28;20037;-64
2023/08/26 11:50:43;;;;;;;4.13;1.50;;;21.10;99.90;;;;;;5034547;28;20037;-64
2023/08/26 11:53:09;;;;;;;6.50;1.50;;;20.90;99.90;;;;;;5019595;28;20033;-63
2023/08/26 11:55:42;;;;;;;5.38;1.38;;;21.00;99.90;;;;;;5038222;28;20102;-64
2023/08/26 11:58:08;;;;;;;5.43;1.50;;;21.20;99.90;;;;;;5037821;28;20079;-62
2023/08/26 12:00:37;;;;;;;4.97;1.40;;;21.00;99.90;;;;;;5038119;28;20065;-63
2023/08/26 12:03:04;;;;;;;5.30;1.38;;;21.10;99.90;;;;;;5037980;28;20063;-63
2023/08/26 12:05:48;;;;;;;5.13;1.20;;;21.30;99.90;;;;;;5037795;28;20123;-64
2023/08/26 12:08:19;;;;;;;4.82;1.45;;;21.70;99.90;;;;;;5037957;28;20111;-63
2023/08/26 12:10:50;;;;;;;4.30;1.20;;;22.00;99.90;;;;;;5038027;28;20150;-64
2023/08/26 12:13:16;;;;;;;4.13;1.30;;;22.30;99.90;;;;;;5056005;28;20035;-64
2023/08/26 12:15:45;;;;;;;6.07;1.40;;;22.50;99.90;;;;;;5054376;28;20041;-64
2023/08/26 12:18:18;;;;;;;5.05;1.17;;;22.50;99.90;;;;;;5037899;28;20045;-64
2023/08/26 12:20:46;;;;;;;4.85;1.10;;;22.40;99.90;;;;;;5022830;28;20108;-63
2023/08/26 12:23:30;;;;;;;3.90;1.15;;;22.50;99.90;;;;;;5023968;28;20489;-63
2023/08/26 12:25:56;;;;;;;4.43;1.40;;;22.60;99.90;;;;;;5021518;28;20041;-62
2023/08/26 12:28:25;;;;;;;4.90;1.30;;;22.50;99.90;;;;;;5037697;28;20436;-63
2023/08/26 12:30:51;;;;;;;5.15;1.30;;;22.40;99.90;;;;;;5037473;28;20048;-62
2023/08/26 12:33:23;;;;;;;4.43;1.30;;;22.30;99.90;;;;;;5037368;28;20041;-64
2023/08/26 12:35:51;;;;;;;4.43;1.17;;;22.30;99.90;;;;;;5037377;28;20124;-64
2023/08/26 12:38:16;;;;;;;3.67;1.13;;;22.20;99.90;;;;;;5055609;28;20396;-71
2023/08/26 12:40:47;;;;;;;4.18;1.10;;;22.20;99.90;;;;;;5055232;28;20041;-71